VOE246 EGJJ-LEIB
Flight info
| Callsign | VOE246 |
|---|---|
| Flight time | N/A |
| Altitude | 37000 |
| Route | DIN DCT TUPAR DCT CHALA DCT KOLIS DCT BUROX DCT PUMAL N859 BCN Z174 CORDA |
| Aircraft | B712/M-SDFGHRWY/C |
Departure
| Time | 2026-05-04 17:48 |
|---|---|
| Airport | Jersey Airport (EGJJ) |
Arrival
| Time | N/A |
|---|---|
| Airport | Ibiza Airport (LEIB) |
| Time | Latitude | Longitude | Altitude | Speed | Heading |
|---|---|---|---|---|---|
| 2026-05-04 17:19 | 49.20560 | -2.19637 | 286 ft | 0 kts | 160° |
| 2026-05-04 17:38 | 49.20569 | -2.19642 | 286 ft | 3 kts | 160° |
| 2026-05-04 17:39 | 49.20606 | -2.19662 | 286 ft | 3 kts | 170° |
| 2026-05-04 17:39 | 49.20626 | -2.19663 | 286 ft | 3 kts | 186° |
| 2026-05-04 17:39 | 49.20645 | -2.19657 | 286 ft | 3 kts | 201° |
| 2026-05-04 17:40 | 49.20662 | -2.19644 | 286 ft | 2 kts | 210° |
| 2026-05-04 17:40 | 49.20676 | -2.19632 | 286 ft | 3 kts | 210° |
| 2026-05-04 17:40 | 49.20678 | -2.19630 | 286 ft | 0 kts | 210° |
| 2026-05-04 17:42 | 49.20677 | -2.19630 | 286 ft | 1 kts | 210° |
| 2026-05-04 17:42 | 49.20653 | -2.19651 | 286 ft | 6 kts | 211° |
| 2026-05-04 17:43 | 49.20607 | -2.19751 | 286 ft | 16 kts | 261° |
| 2026-05-04 17:43 | 49.20598 | -2.19882 | 286 ft | 9 kts | 258° |
| 2026-05-04 17:43 | 49.20538 | -2.19925 | 286 ft | 9 kts | 175° |
| 2026-05-04 17:43 | 49.20514 | -2.19980 | 286 ft | 7 kts | 280° |
| 2026-05-04 17:44 | 49.20532 | -2.20086 | 286 ft | 14 kts | 286° |
| 2026-05-04 17:44 | 49.20563 | -2.20241 | 286 ft | 13 kts | 287° |
| 2026-05-04 17:44 | 49.20585 | -2.20350 | 286 ft | 7 kts | 287° |
| 2026-05-04 17:44 | 49.20596 | -2.20407 | 286 ft | 7 kts | 287° |
| 2026-05-04 17:45 | 49.20611 | -2.20489 | 286 ft | 7 kts | 284° |
| 2026-05-04 17:45 | 49.20614 | -2.20508 | 286 ft | 1 kts | 283° |
| 2026-05-04 17:45 | 49.20620 | -2.20551 | 286 ft | 9 kts | 280° |
| 2026-05-04 17:45 | 49.20628 | -2.20657 | 286 ft | 11 kts | 279° |
| 2026-05-04 17:46 | 49.20687 | -2.20694 | 286 ft | 8 kts | 34° |
| 2026-05-04 17:46 | 49.20702 | -2.20634 | 286 ft | 0 kts | 82° |
| 2026-05-04 17:47 | 49.20703 | -2.20632 | 286 ft | 4 kts | 82° |
| 2026-05-04 17:47 | 49.20736 | -2.20232 | 286 ft | 75 kts | 82° |
| 2026-05-04 17:48 | 49.20830 | -2.19101 | 290 ft | 137 kts | 81° |
| 2026-05-04 17:48 | 49.20947 | -2.17564 | 722 ft | 155 kts | 81° |
| 2026-05-04 17:48 | 49.21043 | -2.16436 | 1166 ft | 161 kts | 79° |
| 2026-05-04 17:48 | 49.21337 | -2.14126 | 2183 ft | 166 kts | 76° |
| 2026-05-04 17:49 | 49.21602 | -2.12446 | 2785 ft | 164 kts | 76° |
| 2026-05-04 17:49 | 49.21844 | -2.10732 | 3293 ft | 165 kts | 77° |
| 2026-05-04 17:49 | 49.21963 | -2.08906 | 3561 ft | 185 kts | 93° |
| 2026-05-04 17:49 | 49.21514 | -2.06950 | 3682 ft | 209 kts | 124° |
| 2026-05-04 17:50 | 49.20336 | -2.05509 | 3838 ft | 230 kts | 156° |
| 2026-05-04 17:50 | 49.18734 | -2.05046 | 4089 ft | 241 kts | 180° |
| 2026-05-04 17:50 | 49.17048 | -2.05174 | 4478 ft | 246 kts | 184° |
| 2026-05-04 17:50 | 49.15318 | -2.05336 | 4796 ft | 255 kts | 182° |
| 2026-05-04 17:51 | 49.13564 | -2.05430 | 4929 ft | 250 kts | 181° |
| 2026-05-04 17:51 | 49.11783 | -2.05487 | 5002 ft | 265 kts | 181° |
| 2026-05-04 17:51 | 49.09927 | -2.05535 | 5015 ft | 269 kts | 181° |
| 2026-05-04 17:51 | 49.08031 | -2.05581 | 5012 ft | 270 kts | 181° |
| 2026-05-04 17:52 | 49.06156 | -2.05627 | 5010 ft | 270 kts | 181° |
| 2026-05-04 17:52 | 49.04278 | -2.05674 | 5009 ft | 270 kts | 181° |
| 2026-05-04 17:52 | 49.02405 | -2.05755 | 5040 ft | 270 kts | 182° |
| 2026-05-04 17:52 | 49.00493 | -2.05859 | 5620 ft | 274 kts | 182° |
| 2026-05-04 17:53 | 48.98591 | -2.05966 | 6549 ft | 276 kts | 182° |
| 2026-05-04 17:53 | 48.96669 | -2.06076 | 7389 ft | 278 kts | 182° |
| 2026-05-04 17:53 | 48.94727 | -2.06187 | 8198 ft | 281 kts | 181° |
| 2026-05-04 17:53 | 48.92767 | -2.06299 | 9024 ft | 284 kts | 181° |
| 2026-05-04 17:54 | 48.90790 | -2.06411 | 9880 ft | 284 kts | 181° |
| 2026-05-04 17:54 | 48.88804 | -2.06524 | 10607 ft | 292 kts | 181° |
| 2026-05-04 17:54 | 48.86690 | -2.06643 | 10779 ft | 317 kts | 181° |
| 2026-05-04 17:54 | 48.84403 | -2.06772 | 10879 ft | 342 kts | 181° |
| 2026-05-04 17:55 | 48.81952 | -2.06911 | 11049 ft | 361 kts | 181° |
| 2026-05-04 17:55 | 48.79390 | -2.07059 | 11627 ft | 366 kts | 181° |
| 2026-05-04 17:55 | 48.76848 | -2.07204 | 12274 ft | 368 kts | 181° |
| 2026-05-04 17:55 | 48.74275 | -2.07349 | 12857 ft | 372 kts | 181° |
| 2026-05-04 17:56 | 48.71685 | -2.07496 | 13488 ft | 374 kts | 181° |
| 2026-05-04 17:56 | 48.69077 | -2.07643 | 14064 ft | 378 kts | 181° |
| 2026-05-04 17:56 | 48.66447 | -2.07792 | 14693 ft | 379 kts | 181° |
| 2026-05-04 17:56 | 48.63810 | -2.07940 | 15251 ft | 382 kts | 181° |
| 2026-05-04 17:57 | 48.61145 | -2.08038 | 15804 ft | 385 kts | 177° |
| 2026-05-04 17:57 | 48.58497 | -2.07590 | 16369 ft | 385 kts | 166° |
| 2026-05-04 17:57 | 48.55939 | -2.06357 | 16876 ft | 388 kts | 158° |
| 2026-05-04 17:57 | 48.53463 | -2.04733 | 17385 ft | 390 kts | 155° |
| 2026-05-04 17:58 | 48.50965 | -2.02998 | 17947 ft | 391 kts | 155° |
| 2026-05-04 17:58 | 48.48482 | -2.01281 | 18402 ft | 395 kts | 155° |
| 2026-05-04 17:58 | 48.45988 | -1.99568 | 18901 ft | 396 kts | 156° |
| 2026-05-04 17:58 | 48.43465 | -1.97840 | 19373 ft | 398 kts | 156° |
| 2026-05-04 17:59 | 48.40938 | -1.96113 | 19798 ft | 401 kts | 156° |
| 2026-05-04 17:59 | 48.38398 | -1.94378 | 20254 ft | 403 kts | 156° |
| 2026-05-04 17:59 | 48.33268 | -1.90881 | 21114 ft | 407 kts | 156° |
| 2026-05-04 18:00 | 48.30691 | -1.89127 | 21543 ft | 408 kts | 156° |
| 2026-05-04 18:00 | 48.28066 | -1.87342 | 21914 ft | 411 kts | 156° |
| 2026-05-04 18:00 | 48.25455 | -1.85569 | 22321 ft | 412 kts | 156° |
| 2026-05-04 18:00 | 48.22839 | -1.83794 | 22690 ft | 414 kts | 156° |
| 2026-05-04 18:01 | 48.20211 | -1.82013 | 23041 ft | 417 kts | 156° |
| 2026-05-04 18:01 | 48.17573 | -1.80227 | 23420 ft | 418 kts | 157° |
| 2026-05-04 18:01 | 48.14923 | -1.78435 | 23734 ft | 420 kts | 157° |
| 2026-05-04 18:02 | 48.09580 | -1.74829 | 24393 ft | 424 kts | 157° |
| 2026-05-04 18:02 | 48.06896 | -1.73021 | 24740 ft | 424 kts | 157° |
| 2026-05-04 18:02 | 48.04200 | -1.71206 | 25027 ft | 426 kts | 157° |
| 2026-05-04 18:02 | 48.01502 | -1.69393 | 25356 ft | 427 kts | 157° |
| 2026-05-04 18:03 | 47.98789 | -1.67571 | 25626 ft | 429 kts | 157° |
| 2026-05-04 18:03 | 47.96068 | -1.65746 | 25998 ft | 428 kts | 157° |
| 2026-05-04 18:03 | 47.93322 | -1.63906 | 26357 ft | 428 kts | 157° |
| 2026-05-04 18:03 | 47.90652 | -1.62119 | 26772 ft | 426 kts | 157° |
| 2026-05-04 18:04 | 47.87923 | -1.60295 | 27153 ft | 425 kts | 157° |
| 2026-05-04 18:04 | 47.85236 | -1.58502 | 27574 ft | 423 kts | 157° |
| 2026-05-04 18:04 | 47.79896 | -1.54943 | 28386 ft | 420 kts | 157° |
| 2026-05-04 18:05 | 47.77240 | -1.53175 | 28813 ft | 418 kts | 157° |
| 2026-05-04 18:05 | 47.74594 | -1.51417 | 29239 ft | 416 kts | 157° |
| 2026-05-04 18:05 | 47.71970 | -1.49674 | 29623 ft | 415 kts | 157° |
| 2026-05-04 18:05 | 47.69338 | -1.47929 | 30055 ft | 413 kts | 157° |
| 2026-05-04 18:06 | 47.64061 | -1.44436 | 30692 ft | 414 kts | 158° |
| 2026-05-04 18:06 | 47.61432 | -1.42699 | 31003 ft | 415 kts | 157° |
| 2026-05-04 18:06 | 47.58796 | -1.40958 | 31312 ft | 416 kts | 157° |
| 2026-05-04 18:07 | 47.56152 | -1.39215 | 31625 ft | 417 kts | 158° |
| 2026-05-04 18:07 | 47.53503 | -1.37470 | 31922 ft | 418 kts | 158° |
| 2026-05-04 18:07 | 47.50857 | -1.35729 | 32227 ft | 419 kts | 158° |
| 2026-05-04 18:07 | 47.48150 | -1.33950 | 32534 ft | 419 kts | 157° |
| 2026-05-04 18:08 | 47.45491 | -1.32204 | 32831 ft | 420 kts | 158° |
| 2026-05-04 18:08 | 47.42818 | -1.30451 | 33122 ft | 421 kts | 158° |
| 2026-05-04 18:08 | 47.40138 | -1.28695 | 33415 ft | 422 kts | 158° |
| 2026-05-04 18:08 | 47.37455 | -1.26940 | 33709 ft | 423 kts | 158° |
| 2026-05-04 18:09 | 47.32069 | -1.23421 | 34275 ft | 425 kts | 158° |
| 2026-05-04 18:09 | 47.26669 | -1.19902 | 34849 ft | 426 kts | 158° |
| 2026-05-04 18:10 | 47.23958 | -1.18138 | 35151 ft | 426 kts | 158° |
| 2026-05-04 18:10 | 47.21243 | -1.16373 | 35406 ft | 428 kts | 158° |
| 2026-05-04 18:10 | 47.18524 | -1.14608 | 35704 ft | 428 kts | 158° |
| 2026-05-04 18:10 | 47.15804 | -1.12844 | 35991 ft | 428 kts | 158° |
| 2026-05-04 18:11 | 47.13052 | -1.11062 | 36248 ft | 430 kts | 158° |
| 2026-05-04 18:11 | 47.10316 | -1.09291 | 36551 ft | 429 kts | 158° |
| 2026-05-04 18:11 | 47.07583 | -1.07525 | 36788 ft | 430 kts | 158° |
| 2026-05-04 18:11 | 47.04844 | -1.05757 | 36904 ft | 432 kts | 158° |
| 2026-05-04 18:12 | 46.99369 | -1.02228 | 36956 ft | 429 kts | 158° |
| 2026-05-04 18:12 | 46.93923 | -0.98726 | 36963 ft | 428 kts | 158° |
| 2026-05-04 18:13 | 46.88465 | -0.95224 | 36964 ft | 428 kts | 158° |
| 2026-05-04 18:14 | 46.80291 | -0.89994 | 36964 ft | 428 kts | 158° |
| 2026-05-04 18:14 | 46.74806 | -0.86495 | 36963 ft | 428 kts | 158° |
| 2026-05-04 18:15 | 46.63890 | -0.79553 | 36960 ft | 428 kts | 158° |
| 2026-05-04 18:16 | 46.58437 | -0.76097 | 36957 ft | 429 kts | 158° |
| 2026-05-04 18:16 | 46.52977 | -0.72643 | 36951 ft | 429 kts | 158° |
| 2026-05-04 18:17 | 46.45675 | -0.68036 | 36946 ft | 429 kts | 158° |
| 2026-05-04 18:18 | 46.37642 | -0.62331 | 36943 ft | 430 kts | 154° |
| 2026-05-04 18:18 | 46.32351 | -0.58338 | 36942 ft | 430 kts | 154° |
| 2026-05-04 18:19 | 46.24374 | -0.52349 | 36940 ft | 430 kts | 154° |
| 2026-05-04 18:19 | 46.19074 | -0.48381 | 36940 ft | 430 kts | 154° |
| 2026-05-04 18:20 | 46.13769 | -0.44417 | 36939 ft | 430 kts | 154° |
| 2026-05-04 18:20 | 46.08471 | -0.40468 | 36938 ft | 430 kts | 154° |
| 2026-05-04 18:21 | 46.03165 | -0.36522 | 36938 ft | 430 kts | 154° |
| 2026-05-04 18:21 | 45.97864 | -0.32587 | 36938 ft | 430 kts | 155° |
| 2026-05-04 18:22 | 45.92537 | -0.28642 | 36939 ft | 432 kts | 155° |
| 2026-05-04 18:22 | 45.87168 | -0.24675 | 36939 ft | 431 kts | 155° |
| 2026-05-04 18:23 | 45.81842 | -0.20747 | 36940 ft | 431 kts | 155° |
| 2026-05-04 18:23 | 45.76519 | -0.16831 | 36940 ft | 431 kts | 155° |
| 2026-05-04 18:24 | 45.71186 | -0.12916 | 36940 ft | 431 kts | 155° |
| 2026-05-04 18:24 | 45.65857 | -0.09012 | 36940 ft | 431 kts | 155° |
| 2026-05-04 18:25 | 45.60487 | -0.05086 | 36941 ft | 432 kts | 155° |
| 2026-05-04 18:25 | 45.55138 | -0.01184 | 36940 ft | 432 kts | 155° |
| 2026-05-04 18:26 | 45.49824 | 0.02686 | 36941 ft | 422 kts | 156° |
| 2026-05-04 18:26 | 45.44662 | 0.06435 | 36942 ft | 417 kts | 156° |
| 2026-05-04 18:27 | 45.39466 | 0.10200 | 36944 ft | 421 kts | 156° |
| 2026-05-04 18:27 | 45.34218 | 0.13875 | 36943 ft | 420 kts | 159° |
| 2026-05-04 18:28 | 45.28868 | 0.17303 | 36944 ft | 420 kts | 159° |